Flight Track Log - Related Links

Times and Time Zones

All times are in EST time to prevent confusion due to time zone crossing. See the N796PG flight status page for this flight to view local times or setup timezone preferences in your user account.

Time Position Orientation Groundspeed Altitude Reporting Facility
EST Latitude Longitude Course Direction KTS MPH feet Rate Location/Type
Fri 05:38:00 PM 34.6970 -82.6602 253° West  Level Estimated
Fri 05:38:25 PM 34.8314 -82.5939 291° West 158 182 6,000  Level Atlanta Center
Fri 05:39:00 PM 34.6958 -82.7203 269° West  Level FlightAware Approximate
Fri 05:39:25 PM 34.8528 -82.6442 297° West 165 190 6,000  Level Atlanta Center
Fri 05:40:00 PM 34.7108 -82.7686 291° West  Level FlightAware Approximate
Fri 05:40:25 PM 34.8469 -82.6922 262° West 160 184 6,000  Level Atlanta Center
Fri 05:41:00 PM 34.7257 -82.8169 291° West  Level FlightAware Approximate
Fri 05:41:25 PM 34.8331 -82.7456 252° West 160 184 6,000  Level Atlanta Center
Fri 05:42:00 PM 34.7406 -82.8653 291° West  Level FlightAware Approximate
Fri 05:42:25 PM 34.8231 -82.7889 254° West 165 190 6,000  Level Atlanta Center
Fri 05:43:25 PM 34.8069 -82.8472 251° West 165 190 6,000  Level Atlanta Center
Fri 05:44:25 PM 34.7950 -82.9006 255° West 165 190 6,000  Level Atlanta Center
Fri 05:45:25 PM 34.7808 -82.9539 252° West 165 190 6,000  Level Atlanta Center
Fri 05:46:25 PM 34.7667 -83.0072 252° West 165 190 6,000  Level Atlanta Center
Fri 05:47:25 PM 34.7544 -83.0603 254° West 165 190 6,000  Level Atlanta Center
Fri 05:48:25 PM 34.7425 -83.1111 254° West 170 196 6,000  Level Atlanta Center
Fri 05:49:25 PM 34.7281 -83.1617 251° West 163 188 6,000  Level Atlanta Center
Fri 05:50:25 PM 34.7139 -83.2150 252° West 163 188 6,000  Level Atlanta Center
Fri 05:51:25 PM 34.6997 -83.2733 254° West 168 193 6,000  Level Atlanta Center
Fri 05:52:25 PM 34.6792 -83.3164 240° Southwest 162 186 6,000  Level Atlanta Center
Fri 05:53:25 PM 34.6417 -83.3572 222° Southwest 166 191 6,000  Level Atlanta Center
Fri 05:54:25 PM 34.6044 -83.3953 220° Southwest 171 197 6,000  Level Atlanta Center
Fri 05:55:25 PM 34.5692 -83.4333 222° Southwest 176 203 6,000  Level Atlanta Center
Fri 05:56:25 PM 34.5297 -83.4739 220° Southwest 184 212 6,000  Level Atlanta Center
Fri 05:57:25 PM 34.4964 -83.5144 225° Southwest 184 212 6,000  Level Atlanta Center
Fri 05:58:25 PM 34.4592 -83.5550 222° Southwest 184 212 6,000  Level Atlanta Center
Fri 05:59:25 PM 34.4153 -83.5981 219° Southwest 184 212 6,000  Level Atlanta Center
Fri 06:00:25 PM 34.3800 -83.6386 223° Southwest 184 212 6,000  Level Atlanta Center
Fri 06:01:25 PM 34.3425 -83.6789 222° Southwest 184 212 6,000  Level Atlanta Center
Fri 06:02:25 PM 34.3053 -83.7219 224° Southwest 184 212 6,000  Level Atlanta Center
Fri 06:03:25 PM 34.2656 -83.7597 218° Southwest 184 212 6,000  Level Atlanta Center
Fri 06:04:25 PM 34.2303 -83.8000 223° Southwest 184 212 6,000  Level Atlanta Center
Fri 06:05:25 PM 34.1947 -83.8378 221° Southwest 184 212 6,000  Level Atlanta Center
Fri 06:07:10 PM 34.1333 -83.9167 227° Southwest 195 224 6,000  Level Atlanta TRACON
Fri 06:08:05 PM 34.1000 -83.9500 220° Southwest 185 213 6,000 -261 Level Atlanta TRACON
Fri 06:09:05 PM 34.0667 -84.0000 231° Southwest 190 219 5,500 -476 Descending Atlanta TRACON
Fri 06:10:11 PM 34.0167 -84.0500 220° Southwest 190 219 5,000 -238 Descending Atlanta TRACON
Fri 06:11:11 PM 33.9833 -84.1000 231° Southwest 178 205 5,000 -200 Level Atlanta TRACON
Fri 06:12:11 PM 33.9500 -84.1333 220° Southwest 183 211 4,600 -250 Descending Atlanta TRACON
Fri 06:13:11 PM 33.9333 -84.1833 248° West 184 212 4,500 -300 Descending Atlanta TRACON
Fri 06:14:11 PM 33.9000 -84.2333 231° Southwest 173 199 4,000 -500 Descending Atlanta TRACON
Fri 06:15:11 PM 33.8833 -84.2833 248° West 155 178 3,500 -750 Descending Atlanta TRACON
Fri 06:16:11 PM 33.8333 -84.2833 180° South 145 167 2,500 -800 Descending Atlanta TRACON
Fri 06:17:11 PM 33.8333 -84.3167 270° West 125 144 1,900 -600 Descending Atlanta TRACON
Fri 06:19:00 PM 33.8667 -84.3000 239° Southwest  Level FlightAware Approximate
Fri 06:26:00 PM 33.8756 -84.3020 239° Southwest  Level Estimated

Login

Don't have an account? Register now (free) for customized features, flight alerts, and more!